KSTC/STC METAR and TAF weather

Enter ICAO airport designator
Station Type Date Time Source
KSTC METAR 2019/02/16 02:53 UTC NOAA

KSTC 160253Z AUTO 35004KT 10SM CLR M15/M19 A3011 RMK AO2 SLP234 T11501194 58003


Station Type Date Time Source
KSTC Decoded METAR 2019/02/16 02:53 UTC NOAA

ST. CLOUD REGIONAL AIRPORT, MN, United States (KSTC) 45-33N 094-03W
Feb 15, 2019 - 09:53 PM EST / 2019.02.16 0253 UTC
Wind: from the N (350 degrees) at 5 MPH (4 KT):0
Visibility: 10 mile(s):0
Sky conditions: clear
Temperature: 5.0 F (-15.0 C)
Windchill: -4 F (-20 C):1
Dew Point: -2.9 F (-19.4 C)
Relative Humidity: 69%
Pressure (altimeter): 30.11 in. Hg (1019 hPa)
Pressure tendency: 0.01 inches (0.3 hPa) lower than three hours ago
ob: KSTC 160253Z AUTO 35004KT 10SM CLR M15/M19 A3011 RMK AO2 SLP234 T11501194 58003
cycle: 3

Station Type Date Time Source
KSTC TAF 2019/02/16 03:27 UTC NOAA

TAF
AMD KSTC 160325Z 1603/1624 34004KT P6SM FEW250
FM160600 VRB02KT P6SM SCT200
FM161500 11005KT P6SM SCT020 BKN120


Example: see airport list